Bemidji Regional Airport
KBJI : now visible

Airfield :











YOU CAN JOIN US ON...

 
LOGIN :

Register | Disclaimer

   EN    FR    IT 

 









Legend :    VFR   Marginal VFR   IFR   Intensive IFR   Very Intensive IFR
Visi :
Ceiling :
>= 8 km
>= 3000ft
5 to 8 km
1000 to 3000 ft
1500m to 5 km
500 to 1000 ft
800 to 1500m
200 to 500 ft
< 800m
< 200 ft
Symbols :   Thunderstorms  Fog  Heavy snow  Heavy precipitations  Wind > 20 kt






- Airport Elevation : 1391 ft


KBJI - Bemidji Regional

CURRENT METAR :
  • 100316Z AUTO 21006KT 10SM CLR 19/15 A2988 RMK AO2 T01930148

EXPIRED METARs :
  • 100255Z AUTO 21005KT 10SM CLR 20/15 A2987 RMK AO2 T01950146
  • 100236Z AUTO 22005KT 10SM CLR 20/15 A2987 RMK AO2 T02000146
  • 100216Z AUTO 23004KT 10SM CLR 20/14 A2986 RMK AO2 T02040141
  • 100156Z AUTO 25005KT 10SM CLR 21/14 A2986 RMK AO2 T02100142
  • 100155Z AUTO 25005KT 10SM CLR 21/14 A2986 RMK AO2 T02100142
  • 100135Z AUTO 28007KT 10SM CLR 22/14 A2986 RMK AO2 T02160140
  • 100116Z AUTO 28007KT 10SM CLR 22/14 A2985 RMK AO2 T02230140
  • 100056Z AUTO 28010KT 10SM CLR 23/14 A2985 RMK AO2 T02270136
  • 100035Z AUTO 25007KT 10SM CLR 23/14 A2985 RMK AO2 T02300139

TAF KBJI
Valid from the 10 at 00:00 until the 11 at 00:00 UTC


092328Z 1000/1024 27009KT P6SM FEW050
FM100200 VRB05KT P6SM SKC
FM101700 30007KT P6SM SCT050
KZMP FIR / North America



MET'MAP, your aeronautical weather chart ! - Copyright ORBIFLY December 2007 - Disclaimer

ORBIFLY MET'MAP TEAM :

Programming & Development : Alexandra Zaïnal
Concept & original design : Baudouin d'Aumeries
Assistance for programming : Marc-Olivier Méhu
Technical & hardware support : Manuel Goepfert

Contact : metmap@orbifly.com




SOURCES & CREDITS :

   NOAA       Earth
Advisory